Time;durP1;ratioP1;P1;durP2;ratioP2;P2;SDS_P1;SDS_P2;PMS_P1;PMS_P2;Temp;Humidity;BMP_temperature;BMP_pressure;BME280_temperature;BME280_humidity;BME280_pressure;Samples;Min_cycle;Max_cycle;Signal;HPM_P1;HPM_P2
2022/06/26 00:01:49;;;;;;;1.95;1.00;;;;;;;20.23;100.00;100311.03;5180656;28;20014;-72
2022/06/26 00:04:19;;;;;;;3.42;1.30;;;;;;;20.00;100.00;100316.44;5181788;28;20484;-73
2022/06/26 00:06:49;;;;;;;2.10;1.23;;;;;;;19.80;100.00;100315.31;5181385;28;20091;-73
2022/06/26 00:09:20;;;;;;;4.72;1.30;;;;;;;19.78;100.00;100316.44;5181554;28;20041;-73
2022/06/26 00:11:50;;;;;;;4.82;1.30;;;;;;;19.85;100.00;100321.16;5180085;28;20022;-73
2022/06/26 00:14:21;;;;;;;5.13;1.40;;;;;;;19.51;100.00;100321.19;5180775;28;20041;-73
2022/06/26 00:16:51;;;;;;;3.65;1.40;;;;;;;19.28;100.00;100314.97;5177733;28;20423;-72
2022/06/26 00:19:22;;;;;;;1.67;1.30;;;;;;;19.27;100.00;100313.28;5180435;28;20554;-72
2022/06/26 00:21:52;;;;;;;2.85;1.40;;;;;;;19.15;100.00;100319.47;5181895;28;20030;-73
2022/06/26 00:24:28;;;;;;;4.65;1.50;;;;;;;19.05;100.00;100321.13;5181877;28;20044;-73
2022/06/26 00:26:59;;;;;;;4.72;1.60;;;;;;;19.00;100.00;100323.25;5186304;28;20101;-73
2022/06/26 00:29:30;;;;;;;4.45;1.52;;;;;;;18.97;100.00;100323.47;5179683;28;20045;-73
2022/06/26 00:32:04;;;;;;;2.47;1.40;;;;;;;18.91;100.00;100321.28;5181699;28;20169;-73
2022/06/26 00:34:35;;;;;;;2.58;1.35;;;;;;;19.10;100.00;100326.91;5181322;28;20366;-73
2022/06/26 00:37:05;;;;;;;2.60;1.40;;;;;;;19.28;100.00;100322.91;5202738;23;20498;-73
2022/06/26 00:39:36;;;;;;;2.50;1.45;;;;;;;19.23;100.00;100314.47;5186537;28;20041;-73
2022/06/26 00:42:07;;;;;;;2.47;1.30;;;;;;;19.39;100.00;100325.63;5181174;28;20068;-73
2022/06/26 00:44:37;;;;;;;1.98;1.20;;;;;;;19.31;100.00;100325.31;5181105;28;20200;-73
2022/06/26 00:47:07;;;;;;;1.60;1.30;;;;;;;19.48;100.00;100330.19;5181368;28;20462;-72
2022/06/26 00:49:38;;;;;;;1.73;1.30;;;;;;;19.38;100.00;100325.72;5179523;28;20029;-72
2022/06/26 00:52:08;;;;;;;3.38;1.40;;;;;;;19.46;100.00;100321.53;5179858;28;20471;-73
2022/06/26 00:54:39;;;;;;;3.83;1.40;;;;;;;19.40;100.00;100322.00;5180248;28;20026;-72
2022/06/26 00:57:09;;;;;;;1.55;1.23;;;;;;;19.53;100.00;100327.22;5181103;28;20018;-73
2022/06/26 00:59:40;;;;;;;2.08;1.40;;;;;;;19.57;100.00;100329.50;5181433;28;20125;-73
2022/06/26 01:02:10;;;;;;;4.18;1.35;;;;;;;19.45;100.00;100326.97;5181615;28;20029;-72
2022/06/26 01:04:41;;;;;;;1.83;1.30;;;;;;;19.33;100.00;100325.22;5181311;28;20435;-73
2022/06/26 01:07:11;;;;;;;1.75;1.25;;;;;;;19.42;100.00;100330.69;5180625;28;20033;-73
2022/06/26 01:09:42;;;;;;;2.67;1.70;;;;;;;19.33;100.00;100315.47;5179714;28;20017;-73
2022/06/26 01:12:12;;;;;;;3.67;1.40;;;;;;;19.50;100.00;100332.75;5176729;28;20117;-72
2022/06/26 01:14:43;;;;;;;6.18;1.33;;;;;;;19.61;100.00;100335.44;5171542;28;20134;-73
2022/06/26 01:17:13;;;;;;;1.52;1.35;;;;;;;19.57;100.00;100329.50;5180920;28;20052;-73
2022/06/26 01:19:44;;;;;;;3.38;1.70;;;;;;;19.36;100.00;100336.44;5180296;28;20146;-73
2022/06/26 01:22:14;;;;;;;3.15;1.50;;;;;;;19.22;100.00;100328.69;5180356;28;20420;-73
2022/06/26 01:24:45;;;;;;;2.45;1.58;;;;;;;19.26;100.00;100334.63;5170858;28;20026;-73
2022/06/26 01:27:15;;;;;;;3.53;1.50;;;;;;;19.42;100.00;100335.16;5180751;28;20423;-73
2022/06/26 01:29:45;;;;;;;2.45;1.40;;;;;;;19.17;100.00;100336.13;5180884;28;20109;-73
2022/06/26 01:32:16;;;;;;;3.35;1.60;;;;;;;19.14;100.00;100332.84;5175176;28;20060;-73
2022/06/26 01:34:46;;;;;;;3.65;1.50;;;;;;;19.08;100.00;100336.78;5180733;28;20068;-73
2022/06/26 01:37:17;;;;;;;4.07;1.70;;;;;;;19.13;100.00;100333.78;5179621;28;20117;-72
2022/06/26 01:39:47;;;;;;;2.10;1.45;;;;;;;19.15;100.00;100335.38;5180572;28;20096;-73
2022/06/26 01:42:17;;;;;;;4.25;1.45;;;;;;;19.21;100.00;100334.94;5180485;28;20387;-73
2022/06/26 01:44:48;;;;;;;8.23;1.98;;;;;;;19.11;100.00;100347.13;5180487;28;20394;-73
2022/06/26 01:47:18;;;;;;;2.40;1.60;;;;;;;19.05;100.00;100346.75;5179622;28;20411;-72
2022/06/26 01:49:49;;;;;;;7.00;1.80;;;;;;;19.11;100.00;100343.66;5179942;28;20026;-73
2022/06/26 01:52:19;;;;;;;4.30;1.60;;;;;;;19.11;100.00;100341.00;5180184;28;20033;-73
2022/06/26 01:54:49;;;;;;;2.70;1.80;;;;;;;18.58;100.00;100346.72;5158520;28;20096;-73
2022/06/26 01:57:20;;;;;;;3.83;1.60;;;;;;;18.50;100.00;100351.72;5179981;28;20036;-73
2022/06/26 01:59:50;;;;;;;3.35;1.92;;;;;;;18.36;100.00;100351.00;5179948;28;20025;-73
2022/06/26 02:02:20;;;;;;;8.98;2.15;;;;;;;18.23;100.00;100355.44;5179820;28;20058;-72
2022/06/26 02:04:50;;;;;;;3.22;1.70;;;;;;;18.24;100.00;100347.41;5179827;28;20101;-73
2022/06/26 02:07:21;;;;;;;5.55;1.90;;;;;;;18.33;100.00;100351.25;5179393;28;20112;-73
2022/06/26 02:15:29;;;;;;;3.83;1.80;;;;;;;18.36;100.00;100351.00;5178017;28;20048;-73
2022/06/26 02:18:00;;;;;;;6.00;2.28;;;;;;;18.54;100.00;100349.69;5179133;28;20217;-73
2022/06/26 02:20:30;;;;;;;4.25;2.08;;;;;;;18.39;100.00;100346.34;5178950;28;20164;-73
2022/06/26 02:23:00;;;;;;;5.25;2.10;;;;;;;18.39;100.00;100340.22;5178263;28;20418;-73
2022/06/26 02:25:31;;;;;;;7.55;2.20;;;;;;;18.37;100.00;100342.13;5178777;28;20079;-73
2022/06/26 02:28:01;;;;;;;5.03;1.90;;;;;;;18.39;100.00;100342.84;5178924;28;20110;-73
2022/06/26 02:30:32;;;;;;;3.85;2.03;;;;;;;18.12;100.00;100342.09;5174376;28;20510;-73
2022/06/26 02:33:03;;;;;;;4.45;2.20;;;;;;;17.98;100.00;100344.88;5175272;28;20034;-73
2022/06/26 02:35:34;;;;;;;4.22;1.90;;;;;;;18.26;100.00;100342.84;5179093;28;20453;-73
2022/06/26 02:38:05;;;;;;;4.03;1.95;;;;;;;18.17;100.00;100342.66;5178979;28;20458;-73
2022/06/26 02:40:35;;;;;;;5.40;1.98;;;;;;;18.17;100.00;100354.06;5179505;28;20029;-73
2022/06/26 02:43:06;;;;;;;3.92;1.95;;;;;;;18.11;100.00;100348.34;5179363;28;20105;-73
2022/06/26 02:45:36;;;;;;;3.10;1.75;;;;;;;18.14;100.00;100350.81;5179138;28;20033;-72
2022/06/26 02:48:07;;;;;;;5.95;2.63;;;;;;;18.06;100.00;100355.78;5175515;28;20201;-71
2022/06/26 02:50:37;;;;;;;7.97;2.30;;;;;;;18.13;100.00;100354.38;5179105;28;20056;-73
2022/06/26 02:53:08;;;;;;;3.63;1.95;;;;;;;18.23;100.00;100355.44;5179412;28;20262;-73
2022/06/26 02:55:38;;;;;;;5.57;2.40;;;;;;;18.31;100.00;100353.16;5179174;28;20475;-73
2022/06/26 02:58:09;;;;;;;9.48;2.38;;;;;;;18.27;100.00;100355.16;5178269;28;20060;-71
2022/06/26 03:00:39;;;;;;;6.30;2.67;;;;;;;18.31;100.00;100350.50;5179077;28;20025;-73
2022/06/26 03:03:10;;;;;;;5.72;2.83;;;;;;;18.34;100.00;100358.22;5178852;28;20022;-73
2022/06/26 03:05:40;;;;;;;6.30;2.53;;;;;;;18.31;100.00;100358.44;5179270;28;20125;-73
2022/06/26 03:08:11;;;;;;;5.88;2.50;;;;;;;18.17;100.00;100358.53;5178441;28;20388;-70
2022/06/26 03:10:41;;;;;;;4.30;2.42;;;;;;;18.10;100.00;100355.47;5178909;28;20033;-73
2022/06/26 03:13:11;;;;;;;7.50;2.45;;;;;;;18.08;100.00;100359.16;5179003;28;20522;-71
2022/06/26 03:15:42;;;;;;;6.55;2.80;;;;;;;18.05;100.00;100364.66;5179404;28;20145;-71
2022/06/26 03:18:12;;;;;;;7.18;2.78;;;;;;;17.93;100.00;100362.84;5176982;28;20108;-70
2022/06/26 03:20:43;;;;;;;6.22;2.40;;;;;;;17.74;100.00;100370.34;5183029;28;20026;-71
2022/06/26 03:23:13;;;;;;;9.10;2.80;;;;;;;17.63;100.00;100364.97;5177164;28;20018;-70
2022/06/26 03:25:43;;;;;;;11.25;2.80;;;;;;;17.70;100.00;100368.88;5183330;28;20107;-71
2022/06/26 03:28:14;;;;;;;7.20;2.60;;;;;;;17.71;100.00;100370.56;5182761;28;20022;-71
2022/06/26 03:30:44;;;;;;;7.32;2.75;;;;;;;17.83;100.00;100364.47;5183115;28;20022;-71
2022/06/26 03:33:14;;;;;;;8.68;2.50;;;;;;;18.07;100.00;100368.91;5182035;28;20476;-71
2022/06/26 03:35:45;;;;;;;4.50;2.50;;;;;;;18.01;100.00;100366.66;5173570;28;20036;-71
2022/06/26 03:38:15;;;;;;;7.43;2.60;;;;;;;17.92;100.00;100374.38;5182721;28;20468;-71
2022/06/26 03:40:46;;;;;;;6.53;2.45;;;;;;;18.00;100.00;100366.78;5183106;28;20030;-72
2022/06/26 03:43:16;;;;;;;8.15;2.78;;;;;;;18.11;100.00;100374.81;5177346;28;20509;-71
2022/06/26 03:45:46;;;;;;;7.88;2.40;;;;;;;18.15;100.00;100369.19;5182232;28;20423;-72
2022/06/26 03:48:17;;;;;;;5.82;2.38;;;;;;;18.40;100.00;100382.47;5181482;28;20037;-71
2022/06/26 03:50:47;;;;;;;5.63;2.22;;;;;;;18.53;100.00;100385.91;5181970;28;20030;-72
2022/06/26 03:53:18;;;;;;;8.25;2.35;;;;;;;18.47;100.00;100389.00;5182710;28;20030;-72
2022/06/26 03:55:48;;;;;;;6.97;2.50;;;;;;;18.56;100.00;100392.78;5182603;28;20026;-71
2022/06/26 03:58:19;;;;;;;9.38;2.50;;;;;;;18.64;100.00;100390.44;5181843;28;20107;-71
2022/06/26 04:00:49;;;;;;;6.15;2.25;;;;;;;18.73;100.00;100385.34;5182005;28;20495;-71
2022/06/26 04:03:20;;;;;;;6.05;2.22;;;;;;;18.76;100.00;100388.59;5180974;28;20029;-71
2022/06/26 04:05:51;;;;;;;6.88;2.38;;;;;;;18.75;100.00;100386.91;5182472;28;20026;-71
2022/06/26 04:08:21;;;;;;;8.20;2.33;;;;;;;18.55;100.00;100393.75;5181540;28;20033;-71
2022/06/26 04:10:51;;;;;;;6.22;2.17;;;;;;;18.60;100.00;100394.25;5182656;28;20029;-72
2022/06/26 04:13:22;;;;;;;5.72;2.10;;;;;;;18.55;100.00;100389.28;5181247;28;20049;-72
2022/06/26 04:15:52;;;;;;;7.65;2.30;;;;;;;18.52;100.00;100388.69;5173559;28;20030;-71
2022/06/26 04:18:23;;;;;;;7.10;2.15;;;;;;;18.66;100.00;100385.91;5179257;28;20040;-71
2022/06/26 04:20:53;;;;;;;3.75;2.20;;;;;;;18.68;100.00;100387.47;5181711;28;20057;-71
2022/06/26 04:23:24;;;;;;;12.45;2.33;;;;;;;18.90;100.00;100388.47;5181624;28;20069;-71
2022/06/26 04:25:54;;;;;;;5.18;1.92;;;;;;;18.97;100.00;100389.69;5181363;28;20045;-71
2022/06/26 04:28:25;;;;;;;5.10;2.25;;;;;;;18.99;100.00;100395.75;5180987;28;20030;-71
2022/06/26 04:30:55;;;;;;;4.00;2.05;;;;;;;19.20;100.00;100382.75;5182066;28;20156;-71
2022/06/26 04:33:25;;;;;;;4.43;2.03;;;;;;;19.19;100.00;100381.06;5181887;28;20464;-71
2022/06/26 04:35:56;;;;;;;5.97;2.10;;;;;;;19.05;100.00;100383.84;5181730;28;20513;-70
2022/06/26 04:38:26;;;;;;;4.07;2.08;;;;;;;19.28;100.00;100378.56;5180746;28;20025;-71
2022/06/26 04:40:57;;;;;;;5.10;2.00;;;;;;;19.22;100.00;100378.19;5182475;28;20559;-71
2022/06/26 04:43:27;;;;;;;7.60;2.45;;;;;;;19.94;100.00;100381.44;5181576;28;20034;-71
2022/06/26 04:45:57;;;;;;;5.75;2.15;;;;;;;20.55;96.96;100377.50;5182173;28;20463;-72
2022/06/26 04:48:28;;;;;;;5.47;1.98;;;;;;;20.40;97.93;100384.91;5180328;28;20033;-71
2022/06/26 04:50:58;;;;;;;6.07;2.08;;;;;;;21.13;95.84;100381.56;5181319;28;20069;-71
2022/06/26 04:53:28;;;;;;;9.32;2.10;;;;;;;21.44;93.96;100377.19;5181264;28;20029;-71
2022/06/26 04:55:59;;;;;;;5.90;1.83;;;;;;;21.94;91.62;100379.97;5181363;28;20038;-72
2022/06/26 04:58:29;;;;;;;7.72;1.80;;;;;;;21.57;93.86;100386.69;5180731;28;20522;-71
2022/06/26 05:00:59;;;;;;;6.70;1.95;;;;;;;21.84;93.04;100386.22;5181029;28;20025;-70
2022/06/26 05:03:30;;;;;;;4.72;1.70;;;;;;;21.75;96.19;100384.34;5181304;28;20161;-72
2022/06/26 05:06:00;;;;;;;6.78;1.70;;;;;;;23.49;87.62;100375.75;5181349;28;20064;-72
2022/06/26 05:08:30;;;;;;;4.75;1.60;;;;;;;25.07;78.92;100382.72;5175273;28;20284;-72
2022/06/26 05:11:01;;;;;;;7.57;1.80;;;;;;;25.97;76.64;100384.31;5181300;28;20112;-72
2022/06/26 05:13:31;;;;;;;7.47;1.55;;;;;;;25.44;78.56;100383.47;5180733;28;20032;-72
2022/06/26 05:16:01;;;;;;;3.70;1.48;;;;;;;24.96;82.06;100389.13;5181006;28;20041;-72
2022/06/26 05:18:32;;;;;;;2.22;1.30;;;;;;;27.50;71.32;100385.66;5180315;28;20033;-72
2022/06/26 05:21:03;;;;;;;6.30;1.88;;;;;;;28.31;70.73;100387.31;5180995;28;20112;-72
2022/06/26 05:23:33;;;;;;;7.65;1.27;;;;;;;28.55;69.84;100381.88;5171993;28;20034;-72
2022/06/26 05:26:03;;;;;;;6.68;1.58;;;;;;;30.28;65.02;100378.38;5180160;28;20033;-72
2022/06/26 05:28:34;;;;;;;4.45;1.42;;;;;;;28.83;68.58;100380.41;5179479;28;20113;-73
2022/06/26 05:31:04;;;;;;;4.05;1.42;;;;;;;29.28;66.94;100385.94;5174822;28;20030;-73
2022/06/26 05:33:35;;;;;;;4.57;1.80;;;;;;;30.04;66.78;100379.47;5180930;28;20064;-73
2022/06/26 05:36:07;;;;;;;3.22;1.30;;;;;;;29.79;65.89;100379.84;5180699;28;20026;-72
2022/06/26 05:38:39;;;;;;;4.55;1.30;;;;;;;28.95;67.44;100389.81;5170288;28;20388;-72
2022/06/26 05:41:09;;;;;;;4.45;1.42;;;;;;;28.44;69.57;100384.13;5180040;28;20061;-72
2022/06/26 05:43:41;;;;;;;3.72;1.30;;;;;;;29.19;67.91;100379.75;5180857;28;20053;-72
2022/06/26 05:46:11;;;;;;;3.58;1.40;;;;;;;29.00;66.94;100376.66;5180570;28;20487;-69
2022/06/26 05:48:42;;;;;;;3.42;1.40;;;;;;;28.44;71.04;100381.44;5180512;28;20061;-72
2022/06/26 05:51:13;;;;;;;4.75;1.40;;;;;;;27.87;72.32;100380.66;5178312;28;20514;-72
2022/06/26 05:53:43;;;;;;;9.02;1.83;;;;;;;26.91;75.36;100385.81;5175434;28;20041;-72
2022/06/26 05:56:13;;;;;;;5.28;1.60;;;;;;;26.42;76.85;100387.59;5180236;28;20105;-71
2022/06/26 05:58:44;;;;;;;3.17;1.30;;;;;;;26.71;78.61;100380.06;5180545;28;20033;-71
2022/06/26 06:01:14;;;;;;;3.47;1.27;;;;;;;26.00;79.61;100389.34;5180004;28;20114;-73
2022/06/26 06:03:44;;;;;;;5.18;1.50;;;;;;;26.17;77.69;100385.78;5179292;28;20038;-72
2022/06/26 06:06:16;;;;;;;2.88;1.73;;;;;;;25.08;84.57;100392.44;5179273;28;20029;-73
2022/06/26 06:08:48;;;;;;;3.00;1.30;;;;;;;24.84;86.82;100400.19;5178391;28;20034;-73
2022/06/26 06:11:18;;;;;;;2.47;1.42;;;;;;;24.99;85.27;100398.69;5179541;28;20025;-72
2022/06/26 06:13:49;;;;;;;2.90;1.27;;;;;;;25.66;81.79;100391.88;5178167;28;20071;-72
2022/06/26 06:16:19;;;;;;;3.08;1.58;;;;;;;25.39;83.92;100393.78;5179011;28;20033;-72
2022/06/26 06:18:50;;;;;;;2.63;1.23;;;;;;;25.03;83.46;100400.94;5179547;28;20025;-72
2022/06/26 06:21:20;;;;;;;3.13;1.30;;;;;;;24.87;85.05;100400.75;5178342;28;20030;-73
2022/06/26 06:23:50;;;;;;;4.07;1.42;;;;;;;24.31;89.02;100403.59;5180570;28;20052;-73
2022/06/26 06:26:21;;;;;;;2.47;1.40;;;;;;;24.96;85.10;100401.69;5179726;28;20104;-73
2022/06/26 06:28:51;;;;;;;2.00;1.30;;;;;;;25.13;86.96;100407.03;5179244;28;20507;-73
2022/06/26 06:31:21;;;;;;;3.55;1.40;;;;;;;25.43;84.97;100403.19;5180001;28;20018;-73
2022/06/26 06:33:52;;;;;;;2.45;1.35;;;;;;;26.79;78.57;100397.03;5179970;28;20056;-73
2022/06/26 06:39:03;;;;;;;4.07;1.23;;;;;;;27.92;74.00;100402.47;5196034;28;20140;-74
2022/06/26 06:41:33;;;;;;;2.03;1.13;;;;;;;26.94;78.23;100408.81;5198196;28;20104;-75
2022/06/26 06:44:04;;;;;;;6.20;1.40;;;;;;;26.76;78.91;100418.81;5200058;28;20487;-74
2022/06/26 06:46:34;;;;;;;2.25;1.08;;;;;;;27.30;77.16;100411.13;5199817;28;20064;-75
2022/06/26 06:49:04;;;;;;;2.67;0.90;;;;;;;28.08;74.75;100415.06;5199446;28;20029;-75
2022/06/26 06:51:35;;;;;;;2.85;1.30;;;;;;;28.49;72.08;100420.22;5198586;28;20041;-75
2022/06/26 06:54:05;;;;;;;3.05;1.15;;;;;;;29.19;71.02;100416.59;5199406;28;20044;-75
2022/06/26 06:56:35;;;;;;;4.03;1.20;;;;;;;29.12;70.47;100416.50;5199006;28;20067;-74
2022/06/26 06:59:06;;;;;;;3.70;1.23;;;;;;;30.38;68.33;100424.81;5199451;28;20025;-75
2022/06/26 07:01:36;;;;;;;1.95;0.85;;;;;;;30.88;65.41;100421.19;5198710;28;20103;-76
2022/06/26 07:04:07;;;;;;;2.90;1.10;;;;;;;29.83;67.50;100425.13;5199898;28;20570;-75
2022/06/26 07:06:38;;;;;;;6.10;1.27;;;;;;;30.24;67.33;100428.34;5199359;28;20125;-75
2022/06/26 07:09:08;;;;;;;2.38;0.90;;;;;;;31.44;65.38;100425.88;5199163;28;20026;-75
2022/06/26 07:11:39;;;;;;;1.45;0.63;;;;;;;32.26;60.27;100427.97;5199259;28;20029;-75
2022/06/26 07:14:09;;;;;;;2.17;0.73;;;;;;;31.82;61.81;100427.34;5197026;28;20052;-75
2022/06/26 07:16:40;;;;;;;1.40;0.70;;;;;;;32.51;61.00;100425.63;5198309;28;20029;-75
2022/06/26 07:19:11;;;;;;;2.00;1.10;;;;;;;31.41;61.37;100426.28;5198267;28;20033;-73
2022/06/26 07:21:43;;;;;;;1.33;0.70;;;;;;;31.84;61.94;100424.47;5198924;28;20079;-75
2022/06/26 07:24:14;;;;;;;1.63;0.90;;;;;;;32.68;59.43;100430.53;5198938;28;20021;-75
2022/06/26 07:26:44;;;;;;;2.83;0.80;;;;;;;31.62;59.82;100422.72;5190578;28;20025;-75
2022/06/26 07:29:15;;;;;;;1.85;0.70;;;;;;;31.41;60.10;100420.88;5198308;28;20033;-75
2022/06/26 07:31:45;;;;;;;3.13;0.85;;;;;;;31.09;62.22;100415.88;5197326;28;20029;-76
2022/06/26 07:34:18;;;;;;;1.33;0.80;;;;;;;30.92;65.74;100419.81;5194383;28;20048;-75
2022/06/26 07:36:50;;;;;;;3.17;1.00;;;;;;;30.42;64.71;100418.03;5197102;28;20037;-76
2022/06/26 07:39:21;;;;;;;4.05;0.85;;;;;;;30.96;65.21;100422.97;5197446;28;20143;-75
2022/06/26 07:41:51;;;;;;;1.58;0.95;;;;;;;30.75;61.98;100419.38;5196406;28;20558;-75
2022/06/26 07:44:21;;;;;;;1.23;0.82;;;;;;;30.65;61.70;100421.50;5196132;28;20117;-75
2022/06/26 07:46:52;;;;;;;2.92;1.00;;;;;;;31.00;62.87;100427.81;5198573;28;20068;-75
2022/06/26 07:49:22;;;;;;;2.25;0.90;;;;;;;30.45;63.60;100436.56;5197057;28;20280;-75
2022/06/26 07:51:53;;;;;;;2.83;1.00;;;;;;;30.34;63.13;100437.00;5199080;28;20025;-75
2022/06/26 07:54:23;;;;;;;3.70;1.10;;;;;;;30.57;64.35;100435.06;5199135;28;20033;-75
2022/06/26 07:56:53;;;;;;;3.05;0.90;;;;;;;30.87;65.39;100433.03;5198179;28;20343;-75
2022/06/26 07:59:24;;;;;;;2.50;1.00;;;;;;;30.98;64.50;100427.16;5198616;28;20049;-75
2022/06/26 08:01:54;;;;;;;4.22;1.08;;;;;;;31.15;64.54;100425.09;5199194;28;20037;-75
2022/06/26 08:04:25;;;;;;;1.70;1.00;;;;;;;31.44;62.63;100427.75;5199441;28;20033;-75
2022/06/26 08:06:55;;;;;;;3.17;0.90;;;;;;;31.55;60.98;100419.97;5201883;28;20272;-75
2022/06/26 08:09:25;;;;;;;1.98;0.90;;;;;;;32.01;59.90;100423.16;5202098;28;20026;-75
2022/06/26 08:11:56;;;;;;;1.85;0.95;;;;;;;33.10;58.60;100422.22;5202174;28;20083;-75
2022/06/26 08:14:29;;;;;;;3.42;0.88;;;;;;;33.58;58.34;100423.84;5195712;28;20052;-76
2022/06/26 08:17:00;;;;;;;2.65;0.85;;;;;;;34.41;56.70;100429.59;5196668;28;20121;-75
2022/06/26 08:19:30;;;;;;;4.50;0.73;;;;;;;34.42;54.48;100444.84;5200403;28;20112;-76
2022/06/26 08:22:01;;;;;;;6.00;1.20;;;;;;;34.72;53.46;100448.78;5199855;28;20573;-76
2022/06/26 08:24:33;;;;;;;4.20;2.00;;;;;;;34.60;54.93;100445.00;5192632;28;20347;-75
2022/06/26 08:27:04;;;;;;;4.32;2.00;;;;;;;33.47;55.77;100457.84;5198919;28;20487;-75
2022/06/26 08:29:39;;;;;;;4.35;1.80;;;;;;;33.35;56.70;100456.75;5200509;28;21278;-75
2022/06/26 08:32:09;;;;;;;4.90;1.60;;;;;;;34.05;55.08;100456.31;5200891;28;20029;-75
2022/06/26 08:34:41;;;;;;;4.25;1.40;;;;;;;34.20;54.45;100462.41;5201019;28;20043;-75
2022/06/26 08:37:11;;;;;;;2.70;1.08;;;;;;;33.22;54.10;100466.72;5199270;28;20288;-75
2022/06/26 08:39:42;;;;;;;5.70;1.20;;;;;;;34.04;52.80;100460.06;5200158;28;20148;-75
2022/06/26 08:42:13;;;;;;;3.10;1.20;;;;;;;33.76;52.29;100467.53;5200045;28;20709;-75
2022/06/26 08:44:46;;;;;;;1.40;0.93;;;;;;;34.13;52.28;100462.38;5202030;28;20123;-75
2022/06/26 08:47:20;;;;;;;1.80;1.00;;;;;;;33.20;53.64;100472.34;5201058;28;20030;-74
2022/06/26 08:49:51;;;;;;;2.50;0.90;;;;;;;33.19;54.10;100467.09;5200675;28;20040;-75
2022/06/26 08:52:22;;;;;;;4.75;1.20;;;;;;;33.81;53.49;100471.31;5199889;28;20033;-75
2022/06/26 08:54:53;;;;;;;2.63;1.15;;;;;;;34.81;51.93;100458.38;5202433;28;20038;-75
2022/06/26 08:57:24;;;;;;;1.95;1.10;;;;;;;35.07;52.51;100464.59;5200764;28;20028;-75
2022/06/26 08:59:54;;;;;;;1.63;0.90;;;;;;;34.47;52.60;100466.75;5200823;28;20025;-75
2022/06/26 09:02:25;;;;;;;3.80;1.00;;;;;;;35.96;50.87;100467.06;5199582;28;20026;-75
2022/06/26 09:04:56;;;;;;;2.83;1.13;;;;;;;35.93;51.30;100467.50;5193460;28;20040;-74
2022/06/26 09:07:26;;;;;;;2.75;1.10;;;;;;;35.09;52.63;100481.50;5199750;28;20339;-74
2022/06/26 09:09:57;;;;;;;2.70;1.10;;;;;;;35.30;51.78;100478.53;5200021;28;20037;-74
2022/06/26 09:12:36;;;;;;;3.22;0.80;;;;;;;35.56;51.59;100475.66;5200312;28;20036;-75
2022/06/26 09:15:07;;;;;;;2.78;1.00;;;;;;;35.28;51.08;100478.72;5200072;28;20033;-74
2022/06/26 09:17:37;;;;;;;1.98;0.77;;;;;;;35.29;50.34;100477.69;5196910;28;20022;-75
2022/06/26 09:20:08;;;;;;;2.10;1.07;;;;;;;35.65;50.90;100486.09;5197159;28;20037;-75
2022/06/26 09:22:51;;;;;;;4.28;1.00;;;;;;;35.72;49.54;100486.91;5198475;28;20299;-75
2022/06/26 09:25:38;;;;;;;7.90;3.05;;;;;;;35.33;51.10;100487.09;5197928;28;20040;-75
2022/06/26 09:28:29;;;;;;;1.73;0.70;;;;;;;35.87;50.23;100497.50;5188022;28;20099;-75
2022/06/26 09:31:04;;;;;;;2.45;1.00;;;;;;;35.52;48.18;100490.75;5196390;28;20407;-75
2022/06/26 09:33:35;;;;;;;;;;;;;;;35.19;50.52;100490.91;5198628;28;20029;-75
2022/06/26 09:36:12;;;;;;;2.13;0.80;;;;;;;36.11;48.43;100481.22;5197756;28;19939;-74
2022/06/26 09:38:51;;;;;;;1.88;0.85;;;;;;;35.34;49.96;100494.22;5195398;28;20033;-75
2022/06/26 09:41:30;;;;;;;2.15;1.00;;;;;;;35.99;47.67;100488.41;5197962;28;20118;-75
2022/06/26 09:44:00;;;;;;;5.57;0.95;;;;;;;36.61;48.06;100482.94;5197606;28;20044;-75
2022/06/26 09:46:32;;;;;;;2.65;0.80;;;;;;;37.30;46.95;100483.44;5196530;28;20026;-72
2022/06/26 09:49:02;;;;;;;4.60;1.02;;;;;;;36.47;48.37;100478.63;5197406;28;20048;-76
2022/06/26 09:51:33;;;;;;;2.87;0.90;;;;;;;37.30;46.27;100478.81;5197815;28;20025;-74
2022/06/26 09:54:05;;;;;;;1.30;0.80;;;;;;;37.43;45.81;100477.81;5197926;28;20029;-75
2022/06/26 09:56:35;;;;;;;3.03;1.02;;;;;;;36.87;45.75;100474.50;5197146;28;20036;-74
2022/06/26 09:59:07;;;;;;;2.03;0.80;;;;;;;36.85;47.17;100475.75;5196173;28;20494;-75
2022/06/26 10:07:17;;;;;;;2.13;1.00;;;;;;;37.46;45.65;100475.50;5193693;28;20176;-75
2022/06/26 10:09:47;;;;;;;5.45;0.90;;;;;;;35.48;47.59;100478.66;5196792;28;20483;-75
2022/06/26 10:12:19;;;;;;;3.20;0.90;;;;;;;35.53;48.73;100482.41;5196334;28;20040;-74
2022/06/26 10:14:53;;;;;;;3.45;1.08;;;;;;;35.50;51.11;100482.84;5197004;28;20036;-75
2022/06/26 10:17:42;;;;;;;4.97;1.10;;;;;;;34.44;49.90;100484.31;5195780;28;20030;-75
2022/06/26 10:20:19;;;;;;;2.85;0.98;;;;;;;34.97;48.29;100476.94;5196037;28;20496;-74
2022/06/26 10:22:49;;;;;;;2.15;0.90;;;;;;;34.26;49.55;100484.13;5193979;28;20487;-75
2022/06/26 10:25:26;;;;;;;7.47;1.20;;;;;;;33.08;51.53;100490.19;5184584;28;20033;-73
2022/06/26 10:27:57;;;;;;;4.90;1.10;;;;;;;33.56;53.24;100483.75;5190427;28;20057;-75
2022/06/26 10:30:30;;;;;;;2.53;0.90;;;;;;;33.17;50.79;100488.13;5192957;28;20406;-74
2022/06/26 10:33:09;;;;;;;2.30;1.00;;;;;;;33.02;54.47;100484.72;5191390;28;20072;-74
2022/06/26 10:35:51;;;;;;;2.35;0.88;;;;;;;32.11;53.69;100473.19;5191036;28;20025;-75
2022/06/26 10:38:26;;;;;;;3.92;1.00;;;;;;;33.63;53.61;100483.75;5193938;28;20431;-75
2022/06/26 10:44:04;;;;;;;2.92;1.02;;;;;;;34.37;52.09;100482.66;5193828;28;20052;-75
2022/06/26 10:46:37;;;;;;;3.17;1.10;;;;;;;33.20;51.74;100502.16;5193434;28;20025;-75
2022/06/26 10:49:10;;;;;;;1.50;0.90;;;;;;;33.11;52.06;100499.78;5194938;28;20286;-75
2022/06/26 10:51:45;;;;;;;3.00;1.02;;;;;;;33.08;53.95;100494.75;5195222;28;20095;-75
2022/06/26 10:54:29;;;;;;;2.00;0.90;;;;;;;32.95;53.51;100492.81;5190155;28;20041;-72
2022/06/26 10:57:13;;;;;;;1.58;1.05;;;;;;;33.03;52.50;100492.66;5195047;28;20041;-75
2022/06/26 10:59:45;;;;;;;2.70;1.10;;;;;;;32.99;52.08;100490.53;5190280;28;20570;-75
2022/06/26 11:02:15;;;;;;;4.57;1.00;;;;;;;32.19;54.34;100481.19;5195320;28;20510;-75
2022/06/26 11:04:50;;;;;;;1.60;1.00;;;;;;;32.08;55.25;100489.78;5196176;28;20108;-75
2022/06/26 11:07:20;;;;;;;10.23;1.52;;;;;;;31.93;55.07;100486.34;5190232;28;20504;-74
2022/06/26 11:09:55;;;;;;;1.50;1.00;;;;;;;31.95;55.60;100486.13;5185504;28;20045;-75
2022/06/26 11:12:25;;;;;;;3.00;1.05;;;;;;;32.02;54.99;100490.56;5194968;28;20287;-74
2022/06/26 11:14:56;;;;;;;2.13;1.10;;;;;;;31.87;56.16;100492.50;5195676;28;20384;-75
2022/06/26 11:17:26;;;;;;;2.55;1.17;;;;;;;31.69;56.71;100492.09;5197250;28;20268;-75
2022/06/26 11:22:45;;;;;;;5.25;1.20;;;;;;;32.14;55.76;100488.16;5194661;28;20321;-74
2022/06/26 11:25:16;;;;;;;3.33;1.20;;;;;;;31.96;54.41;100480.53;5197969;28;20038;-73
2022/06/26 11:27:49;;;;;;;1.85;1.00;;;;;;;32.69;54.39;100483.69;5197715;28;20295;-75
2022/06/26 11:30:19;;;;;;;2.10;1.02;;;;;;;32.63;55.69;100478.19;5197633;28;20033;-74
2022/06/26 11:32:50;;;;;;;1.92;1.10;;;;;;;32.81;53.95;100481.25;5198045;28;20021;-75
2022/06/26 11:35:26;;;;;;;2.75;1.20;;;;;;;32.78;53.34;100481.66;5197494;28;20049;-75
2022/06/26 11:37:56;;;;;;;2.28;1.10;;;;;;;32.59;53.98;100485.03;5197050;28;20029;-74
2022/06/26 11:40:27;;;;;;;1.92;1.10;;;;;;;32.76;55.14;100478.31;5201355;28;20068;-74
2022/06/26 11:42:57;;;;;;;2.40;1.10;;;;;;;32.27;54.29;100483.78;5201665;28;20021;-75
2022/06/26 11:45:31;;;;;;;1.90;1.10;;;;;;;32.16;53.86;100483.41;5199629;28;20037;-74
2022/06/26 11:48:06;;;;;;;3.78;1.20;;;;;;;32.12;55.58;100477.56;5201260;28;20299;-74
2022/06/26 11:50:37;;;;;;;3.30;1.23;;;;;;;32.33;53.85;100482.97;5201478;28;20200;-74
2022/06/26 11:53:07;;;;;;;2.05;1.15;;;;;;;32.21;55.14;100481.81;5201071;28;20108;-73
2022/06/26 11:55:46;;;;;;;3.55;1.13;;;;;;;32.36;54.86;100476.34;5195890;28;20475;-75
2022/06/26 11:58:17;;;;;;;3.08;1.20;;;;;;;31.89;56.36;100484.22;5197033;28;20471;-74
2022/06/26 12:00:48;;;;;;;1.67;0.77;;;;;;;31.95;54.97;100480.72;5201668;28;20043;-74